Time;durP1;ratioP1;P1;durP2;ratioP2;P2;SDS_P1;SDS_P2;PMS_P1;PMS_P2;Temp;Humidity;BMP_temperature;BMP_pressure;BME280_temperature;BME280_humidity;BME280_pressure;Samples;Min_cycle;Max_cycle;Signal;HPM_P1;HPM_P2
2022/06/11 00:00:23;;;;;;;10.18;2.95;;;14.20;99.90;;;;;;5138802;27;20095;-70
2022/06/11 00:02:49;;;;;;;8.10;2.50;;;14.10;99.90;;;;;;5134649;27;20030;-71
2022/06/11 00:05:14;;;;;;;9.25;2.53;;;14.10;99.90;;;;;;5132003;27;20122;-71
2022/06/11 00:07:42;;;;;;;9.13;2.80;;;14.10;99.90;;;;;;5147200;27;20115;-72
2022/06/11 00:10:09;;;;;;;8.77;2.58;;;14.10;99.90;;;;;;5130638;27;20035;-71
2022/06/11 00:12:36;;;;;;;9.10;3.00;;;14.00;99.90;;;;;;5131179;27;20039;-70
2022/06/11 00:15:04;;;;;;;9.15;3.10;;;14.30;99.90;;;;;;5130340;27;20047;-71
2022/06/11 00:17:31;;;;;;;7.70;2.28;;;13.90;99.90;;;;;;5140073;27;20035;-70
2022/06/11 00:19:59;;;;;;;9.00;2.60;;;13.80;99.90;;;;;;5140885;27;20051;-72
2022/06/11 00:22:28;;;;;;;10.13;2.80;;;13.80;99.90;;;;;;5141317;27;20129;-70
2022/06/11 00:24:53;;;;;;;8.38;2.80;;;13.70;99.90;;;;;;5131667;27;20130;-71
2022/06/11 00:27:20;;;;;;;9.68;2.78;;;13.70;99.90;;;;;;5118437;27;20035;-71
2022/06/11 00:29:47;;;;;;;9.15;2.65;;;13.70;99.90;;;;;;5145495;27;20048;-71
2022/06/11 00:32:13;;;;;;;6.55;2.72;;;13.50;99.90;;;;;;5134990;27;20130;-71
2022/06/11 00:34:41;;;;;;;8.45;2.97;;;13.50;99.90;;;;;;5137597;27;20039;-70
2022/06/11 00:37:10;;;;;;;9.40;2.40;;;13.40;99.90;;;;;;5136029;27;20089;-70
2022/06/11 00:39:37;;;;;;;9.43;2.70;;;13.60;99.90;;;;;;5137910;27;20466;-70
2022/06/11 00:42:12;;;;;;;9.05;2.75;;;13.50;99.90;;;;;;5119654;27;20039;-71
2022/06/11 00:44:38;;;;;;;11.20;3.45;;;13.50;99.90;;;;;;5155604;27;20117;-70
2022/06/11 00:47:20;;;;;;;10.73;2.97;;;13.50;99.90;;;;;;5134761;27;20051;-70
2022/06/11 00:49:53;;;;;;;11.00;3.60;;;13.40;99.90;;;;;;5126829;27;20650;-70
2022/06/11 00:52:34;;;;;;;12.73;3.47;;;13.80;99.90;;;;;;5130138;27;20038;-70
2022/06/11 00:55:05;;;;;;;7.60;2.67;;;13.50;99.90;;;;;;5124405;27;20054;-70
2022/06/11 00:57:36;;;;;;;11.38;3.28;;;13.40;99.90;;;;;;5131760;27;20042;-70
2022/06/11 01:00:10;;;;;;;9.32;3.13;;;13.40;99.90;;;;;;5152230;27;20470;-71
2022/06/11 01:02:37;;;;;;;9.50;3.17;;;13.40;99.90;;;;;;5141266;27;20103;-70
2022/06/11 01:05:05;;;;;;;10.48;3.03;;;13.50;99.90;;;;;;5136392;27;20038;-71
2022/06/11 01:07:45;;;;;;;11.55;2.85;;;13.40;99.90;;;;;;5137326;27;20047;-71
2022/06/11 01:10:41;;;;;;;11.18;2.95;;;13.40;99.90;;;;;;5124844;27;20126;-71
2022/06/11 01:13:21;;;;;;;6.85;2.67;;;13.30;99.90;;;;;;5150968;27;20395;-71
2022/06/11 01:15:55;;;;;;;11.82;3.00;;;13.60;99.90;;;;;;5130113;27;20137;-71
2022/06/11 01:18:45;;;;;;;14.30;3.00;;;13.30;99.90;;;;;;5139706;27;20039;-71
2022/06/11 01:21:31;;;;;;;10.75;2.60;;;13.30;99.90;;;;;;5125373;27;20385;-70
2022/06/11 01:24:11;;;;;;;10.18;2.70;;;13.40;99.90;;;;;;5143145;27;20371;-71
2022/06/11 01:26:59;;;;;;;8.43;2.72;;;13.30;99.90;;;;;;5141454;27;20041;-71
2022/06/11 01:29:49;;;;;;;9.38;2.97;;;13.30;99.90;;;;;;5142773;27;20038;-71
2022/06/11 01:32:25;;;;;;;8.73;2.80;;;13.40;99.90;;;;;;5121470;27;20039;-70
2022/06/11 01:35:03;;;;;;;12.38;3.20;;;13.40;99.90;;;;;;5133147;27;20124;-70
2022/06/11 01:37:50;;;;;;;7.75;2.88;;;13.40;99.90;;;;;;5121376;27;20199;-71
2022/06/11 01:40:30;;;;;;;8.30;2.72;;;13.90;99.90;;;;;;5130678;27;20367;-70
2022/06/11 01:43:10;;;;;;;11.32;3.28;;;13.40;99.90;;;;;;5116681;27;20043;-71
2022/06/11 01:45:38;;;;;;;11.48;3.38;;;13.40;99.90;;;;;;5126367;27;20062;-71
2022/06/11 01:48:09;;;;;;;11.85;2.88;;;13.40;99.90;;;;;;5123327;27;20133;-71
2022/06/11 01:50:39;;;;;;;10.70;3.25;;;13.40;99.90;;;;;;5151839;27;20058;-71
2022/06/11 01:53:44;;;;;;;8.60;2.65;;;13.40;99.90;;;;;;5133721;27;20043;-71
2022/06/11 01:56:13;;;;;;;10.27;3.20;;;13.30;99.90;;;;;;5120563;27;20038;-70
2022/06/11 01:59:15;;;;;;;12.32;2.85;;;13.30;99.90;;;;;;5133356;27;20039;-70
2022/06/11 02:01:59;;;;;;;6.28;2.55;;;13.10;99.90;;;;;;5125860;27;20634;-70
2022/06/11 02:04:24;;;;;;;11.23;2.95;;;13.30;99.90;;;;;;5151433;27;20501;-70
2022/06/11 02:07:03;;;;;;;10.35;2.80;;;13.30;99.90;;;;;;5147932;27;20066;-70
2022/06/11 02:09:49;;;;;;;9.18;2.90;;;13.30;99.90;;;;;;5142560;27;20034;-70
2022/06/11 02:12:41;;;;;;;9.50;2.85;;;13.30;99.90;;;;;;5130011;27;20046;-71
2022/06/11 02:15:12;;;;;;;11.82;3.33;;;13.20;99.90;;;;;;5119316;27;20049;-70
2022/06/11 02:17:41;;;;;;;7.60;2.88;;;13.20;99.90;;;;;;5145376;27;20046;-71
2022/06/11 02:20:22;;;;;;;9.93;3.00;;;13.30;99.90;;;;;;5132938;27;20058;-71
2022/06/11 02:23:00;;;;;;;13.65;3.00;;;13.20;99.90;;;;;;5132892;27;20046;-71
2022/06/11 02:25:49;;;;;;;11.00;2.90;;;13.20;99.90;;;;;;5123375;27;20099;-71
2022/06/11 02:28:19;;;;;;;8.95;2.78;;;13.20;99.90;;;;;;5142388;27;20091;-71
2022/06/11 02:30:48;;;;;;;11.18;3.15;;;13.10;99.90;;;;;;5151155;27;20469;-71
2022/06/11 02:33:17;;;;;;;7.10;2.55;;;13.10;99.90;;;;;;5141841;27;20099;-71
2022/06/11 02:36:14;;;;;;;8.63;2.70;;;13.00;99.90;;;;;;5128684;27;20039;-70
2022/06/11 02:38:40;;;;;;;7.95;2.90;;;13.00;99.90;;;;;;5142305;27;20042;-71
2022/06/11 02:41:10;;;;;;;12.93;3.00;;;13.10;99.90;;;;;;5137886;27;20122;-71
2022/06/11 02:43:36;;;;;;;13.80;3.40;;;13.00;99.90;;;;;;5126645;27;20070;-71
2022/06/11 02:46:40;;;;;;;8.00;2.70;;;13.00;99.90;;;;;;5145316;27;20481;-71
2022/06/11 02:48:50;;;;;;;13.75;3.13;;;13.00;99.90;;;;;;5151096;27;20039;-70
2022/06/11 02:51:17;;;;;;;8.23;2.88;;;13.00;99.90;;;;;;5147177;27;20035;-71
2022/06/11 02:53:42;;;;;;;12.63;3.10;;;13.30;99.90;;;;;;5115113;27;20451;-71
2022/06/11 02:56:09;;;;;;;11.93;3.15;;;13.20;99.90;;;;;;5146125;27;20121;-71
2022/06/11 02:58:34;;;;;;;10.70;3.33;;;13.10;99.90;;;;;;5149058;27;20035;-70
2022/06/11 03:01:00;;;;;;;11.82;3.00;;;13.10;99.90;;;;;;5137346;27;20038;-70
2022/06/11 03:03:27;;;;;;;11.68;3.63;;;13.60;99.90;;;;;;5145042;27;20118;-71
2022/06/11 03:05:53;;;;;;;11.18;3.35;;;13.00;99.90;;;;;;5144542;27;20398;-71
2022/06/11 03:08:18;;;;;;;;;;;13.20;99.90;;;;;;5145966;27;20035;-71
2022/06/11 03:10:44;;;;;;;10.82;3.28;;;13.00;99.90;;;;;;5153547;27;19919;-71
2022/06/11 03:13:09;;;;;;;12.00;3.63;;;13.00;99.90;;;;;;5152824;27;20039;-72
2022/06/11 03:15:35;;;;;;;;;;;12.90;99.90;;;;;;5126624;27;20050;-71
2022/06/11 03:18:01;;;;;;;10.88;3.50;;;13.00;99.90;;;;;;5132382;27;20309;-71
2022/06/11 03:20:30;;;;;;;10.85;3.20;;;12.80;99.90;;;;;;5117625;27;20108;-71
2022/06/11 03:22:57;;;;;;;12.07;3.05;;;13.10;99.90;;;;;;5150180;27;20109;-70
2022/06/11 03:25:23;;;;;;;12.15;3.60;;;12.80;99.90;;;;;;5117812;27;20076;-71
2022/06/11 03:27:48;;;;;;;10.48;3.72;;;12.90;99.90;;;;;;5124248;27;20051;-70
2022/06/11 03:30:15;;;;;;;11.95;3.50;;;12.80;99.90;;;;;;5119124;27;20546;-70
2022/06/11 03:32:43;;;;;;;12.63;3.78;;;13.00;99.90;;;;;;5152077;27;20039;-71
2022/06/11 03:35:09;;;;;;;10.80;3.10;;;13.00;99.90;;;;;;5126277;27;20053;-71
2022/06/11 03:37:35;;;;;;;12.65;3.45;;;12.80;99.90;;;;;;5123833;27;20490;-71
2022/06/11 03:40:03;;;;;;;11.95;2.92;;;12.90;99.90;;;;;;5116790;27;20043;-71
2022/06/11 03:42:28;;;;;;;12.02;3.97;;;13.00;99.90;;;;;;5132604;27;20068;-71
2022/06/11 03:44:54;;;;;;;;;;;13.00;99.90;;;;;;5116702;27;20043;-71
2022/06/11 03:47:20;;;;;;;13.77;3.72;;;13.20;99.90;;;;;;5130993;27;19923;-71
2022/06/11 03:49:46;;;;;;;14.10;3.45;;;12.90;99.90;;;;;;5116512;27;20067;-70
2022/06/11 03:52:12;;;;;;;14.20;3.85;;;12.90;99.90;;;;;;5110180;28;20083;-71
2022/06/11 03:54:38;;;;;;;11.00;3.20;;;13.20;99.90;;;;;;5111648;28;20039;-71
2022/06/11 03:57:05;;;;;;;11.15;3.92;;;13.00;99.90;;;;;;5113021;28;20051;-71
2022/06/11 03:59:31;;;;;;;13.68;4.25;;;13.00;99.90;;;;;;5112024;28;20483;-70
2022/06/11 04:01:57;;;;;;;10.70;3.83;;;13.00;99.90;;;;;;5125218;27;20484;-70
2022/06/11 04:04:23;;;;;;;12.07;3.80;;;13.10;99.90;;;;;;5136094;27;20055;-70
2022/06/11 04:06:57;;;;;;;13.60;3.85;;;13.10;99.90;;;;;;5111229;28;20040;-70
2022/06/11 04:09:33;;;;;;;16.80;4.15;;;13.20;99.90;;;;;;5111531;28;20487;-70
2022/06/11 04:11:59;;;;;;;21.20;5.03;;;13.20;99.90;;;;;;5110485;28;20495;-70
2022/06/11 04:14:25;;;;;;;11.60;4.15;;;13.20;99.90;;;;;;5112202;28;20493;-70
2022/06/11 04:16:53;;;;;;;11.85;4.45;;;13.30;99.90;;;;;;5120864;28;20071;-71
2022/06/11 04:19:33;;;;;;;16.20;4.63;;;13.40;99.90;;;;;;5109980;28;20039;-70
2022/06/11 04:21:59;;;;;;;10.45;3.70;;;13.40;99.90;;;;;;5110787;28;20085;-70
2022/06/11 04:24:26;;;;;;;15.15;4.38;;;13.70;99.90;;;;;;5110166;28;20114;-71
2022/06/11 04:26:56;;;;;;;13.55;4.13;;;13.60;99.90;;;;;;5111439;28;20036;-70
2022/06/11 04:29:25;;;;;;;14.80;4.28;;;13.90;99.90;;;;;;5109673;28;20088;-70
2022/06/11 04:31:54;;;;;;;13.25;4.47;;;13.70;99.90;;;;;;5111740;28;20080;-70
2022/06/11 04:34:21;;;;;;;15.88;4.55;;;13.70;99.90;;;;;;5108890;28;20048;-71
2022/06/11 04:36:48;;;;;;;11.75;4.25;;;13.70;99.90;;;;;;5110459;28;20494;-69
2022/06/11 04:39:17;;;;;;;14.55;4.45;;;13.90;99.90;;;;;;5120245;27;20039;-70
2022/06/11 04:41:44;;;;;;;27.65;5.43;;;13.90;99.90;;;;;;5113220;28;20027;-71
2022/06/11 04:44:09;;;;;;;14.73;4.85;;;14.00;99.90;;;;;;5112191;27;20047;-71
2022/06/11 04:46:38;;;;;;;21.58;5.55;;;14.00;99.90;;;;;;5129286;27;20371;-71
2022/06/11 04:49:05;;;;;;;17.70;4.45;;;14.10;99.90;;;;;;5127558;27;20095;-70
2022/06/11 04:51:31;;;;;;;17.95;6.00;;;14.20;99.90;;;;;;5149330;27;20042;-70
2022/06/11 04:53:56;;;;;;;22.38;6.25;;;14.30;99.90;;;;;;5127133;27;20036;-70
2022/06/11 04:56:25;;;;;;;16.02;4.68;;;14.50;99.90;;;;;;5120240;27;20074;-70
2022/06/11 04:58:51;;;;;;;19.00;5.28;;;14.40;99.90;;;;;;5151908;27;20038;-70
2022/06/11 05:01:18;;;;;;;18.27;5.57;;;14.40;99.90;;;;;;5120726;27;20030;-70
2022/06/11 05:03:43;;;;;;;16.40;4.95;;;14.50;99.90;;;;;;5129166;27;20096;-70
2022/06/11 05:06:21;;;;;;;16.08;4.68;;;14.50;99.90;;;;;;5127595;27;20042;-70
2022/06/11 05:08:47;;;;;;;21.95;5.75;;;14.60;99.90;;;;;;5151715;27;20420;-70
2022/06/11 05:11:13;;;;;;;24.60;5.88;;;14.70;99.90;;;;;;5119466;27;20055;-71
2022/06/11 05:13:39;;;;;;;19.45;6.05;;;14.80;99.90;;;;;;5148489;27;20035;-71
2022/06/11 05:16:05;;;;;;;22.00;6.00;;;14.80;99.90;;;;;;5123809;27;20045;-70
2022/06/11 05:18:33;;;;;;;23.35;5.53;;;14.90;99.90;;;;;;5127022;27;20031;-71
2022/06/11 05:20:59;;;;;;;19.75;5.60;;;14.90;99.90;;;;;;5125083;27;20045;-71
2022/06/11 05:23:25;;;;;;;19.45;5.32;;;14.90;99.90;;;;;;5125484;27;20031;-71
2022/06/11 05:25:51;;;;;;;15.73;4.82;;;15.00;99.90;;;;;;5127616;27;20091;-71
2022/06/11 05:28:21;;;;;;;22.95;5.55;;;14.90;99.90;;;;;;5124510;27;20061;-71
2022/06/11 05:30:47;;;;;;;19.40;5.05;;;15.10;99.90;;;;;;5126500;27;20133;-70
2022/06/11 05:33:14;;;;;;;23.38;5.68;;;15.20;99.90;;;;;;5116505;27;20050;-69
2022/06/11 05:35:40;;;;;;;20.95;5.28;;;15.20;99.90;;;;;;5120780;27;20131;-68
2022/06/11 05:38:09;;;;;;;21.73;5.28;;;15.20;99.90;;;;;;5136218;27;20043;-69
2022/06/11 05:40:38;;;;;;;21.02;5.65;;;15.30;99.90;;;;;;5148836;27;20121;-69
2022/06/11 05:43:05;;;;;;;19.60;5.18;;;15.40;99.90;;;;;;5155177;27;20049;-69
2022/06/11 05:45:36;;;;;;;17.70;5.30;;;15.40;99.90;;;;;;5154269;27;20035;-70
2022/06/11 05:48:04;;;;;;;21.13;5.10;;;15.90;99.90;;;;;;5136542;27;20498;-69
2022/06/11 05:50:33;;;;;;;20.80;5.40;;;15.60;99.90;;;;;;5154447;27;20152;-69
2022/06/11 05:53:01;;;;;;;18.85;6.00;;;15.60;99.90;;;;;;5154938;27;20035;-69
2022/06/11 05:55:31;;;;;;;22.23;5.10;;;15.80;99.90;;;;;;5136223;27;20501;-69
2022/06/11 05:58:00;;;;;;;21.02;4.88;;;15.80;99.90;;;;;;5135742;27;20720;-69
2022/06/11 06:00:28;;;;;;;15.40;4.38;;;15.80;99.90;;;;;;5125846;27;20470;-69
2022/06/11 06:02:54;;;;;;;18.17;5.07;;;15.90;99.90;;;;;;5116527;27;20047;-69
2022/06/11 06:05:27;;;;;;;22.52;7.72;;;16.00;99.90;;;;;;5133609;27;20490;-69
2022/06/11 06:07:56;;;;;;;19.23;5.18;;;16.00;99.90;;;;;;5146130;27;20109;-69
2022/06/11 06:10:25;;;;;;;13.80;4.15;;;16.10;99.90;;;;;;5135875;27;20048;-69
2022/06/11 06:12:51;;;;;;;17.15;4.72;;;16.60;99.90;;;;;;5135777;27;20049;-69
2022/06/11 06:15:23;;;;;;;17.08;5.03;;;16.10;99.90;;;;;;5153193;27;20042;-69
2022/06/11 06:17:51;;;;;;;17.75;4.30;;;16.20;99.90;;;;;;5135962;27;20466;-69
2022/06/11 06:20:18;;;;;;;16.13;4.57;;;16.50;99.90;;;;;;5116769;27;20043;-69
2022/06/11 06:22:44;;;;;;;18.75;3.90;;;16.30;99.90;;;;;;5134170;27;20494;-69
2022/06/11 06:25:14;;;;;;;15.27;3.60;;;16.30;99.90;;;;;;5152458;27;20039;-69
2022/06/11 06:27:39;;;;;;;12.82;3.67;;;16.30;99.90;;;;;;5125156;27;20049;-69
2022/06/11 06:30:06;;;;;;;13.10;3.75;;;16.20;99.90;;;;;;5154671;27;20046;-71
2022/06/11 06:32:31;;;;;;;16.85;4.25;;;16.30;99.90;;;;;;5136182;27;20511;-71
2022/06/11 06:34:57;;;;;;;14.85;4.97;;;16.30;99.90;;;;;;5121960;27;20051;-71
2022/06/11 06:37:23;;;;;;;18.98;3.95;;;16.30;99.90;;;;;;5121019;27;20041;-71
2022/06/11 06:39:48;;;;;;;13.90;4.05;;;16.40;99.90;;;;;;5136065;27;20055;-71
2022/06/11 06:42:17;;;;;;;16.73;3.90;;;16.60;99.90;;;;;;5152811;27;20054;-71
2022/06/11 06:44:43;;;;;;;18.38;4.10;;;16.60;99.90;;;;;;5135360;27;20049;-71
2022/06/11 06:47:09;;;;;;;12.27;3.53;;;16.70;99.90;;;;;;5134034;27;20126;-69
2022/06/11 06:49:34;;;;;;;12.95;3.97;;;16.80;99.90;;;;;;5135609;27;20138;-69
2022/06/11 06:52:00;;;;;;;13.13;3.70;;;17.00;99.90;;;;;;5135467;27;20504;-68
2022/06/11 06:54:26;;;;;;;13.93;3.33;;;17.10;99.90;;;;;;5122196;27;20034;-69
2022/06/11 06:56:51;;;;;;;15.88;3.53;;;17.10;99.90;;;;;;5135871;27;20099;-69
2022/06/11 06:59:17;;;;;;;17.05;4.15;;;17.20;99.90;;;;;;5135000;27;20121;-70
2022/06/11 07:01:44;;;;;;;13.45;3.35;;;17.10;99.90;;;;;;5152244;27;20031;-68
2022/06/11 07:04:11;;;;;;;13.88;3.25;;;17.30;99.90;;;;;;5140813;27;20074;-69
2022/06/11 07:06:40;;;;;;;15.57;3.75;;;17.50;99.90;;;;;;5135465;27;20043;-69
2022/06/11 07:09:15;;;;;;;13.18;3.92;;;17.60;99.90;;;;;;5134372;27;20054;-70
2022/06/11 07:11:42;;;;;;;18.13;3.90;;;17.50;99.90;;;;;;5154156;27;20043;-69
2022/06/11 07:14:08;;;;;;;13.02;3.17;;;18.00;99.90;;;;;;5153016;27;20474;-69
2022/06/11 07:16:44;;;;;;;12.43;3.22;;;17.50;99.90;;;;;;5134564;27;20053;-70
2022/06/11 07:19:16;;;;;;;17.03;3.77;;;17.60;99.90;;;;;;5133253;27;20045;-70
2022/06/11 07:21:49;;;;;;;12.15;3.47;;;18.10;99.90;;;;;;5133044;27;20141;-70
2022/06/11 07:24:18;;;;;;;12.93;3.70;;;18.70;99.90;;;;;;5140553;27;20069;-69
2022/06/11 07:26:49;;;;;;;14.35;3.60;;;19.20;99.90;;;;;;5147541;27;20489;-70
2022/06/11 07:29:20;;;;;;;11.57;3.22;;;19.70;99.90;;;;;;5133518;27;20078;-70
2022/06/11 07:31:49;;;;;;;11.02;3.30;;;20.10;99.90;;;;;;5119973;27;20053;-70
2022/06/11 07:34:19;;;;;;;14.63;3.13;;;20.60;99.90;;;;;;5143668;27;20064;-70
2022/06/11 07:36:45;;;;;;;12.18;3.15;;;20.90;99.90;;;;;;5124203;27;20080;-70
2022/06/11 07:39:11;;;;;;;13.07;3.65;;;21.10;99.90;;;;;;5153138;27;20066;-71
2022/06/11 07:41:37;;;;;;;12.48;3.33;;;21.40;99.90;;;;;;5131311;27;20043;-70
2022/06/11 07:44:03;;;;;;;11.00;2.83;;;21.50;99.90;;;;;;5149056;27;20045;-70
2022/06/11 07:46:29;;;;;;;12.63;3.67;;;21.80;99.90;;;;;;5125527;27;20293;-70
2022/06/11 07:48:54;;;;;;;10.45;3.28;;;22.30;99.90;;;;;;5130624;27;20498;-70
2022/06/11 07:51:20;;;;;;;9.80;3.40;;;22.20;99.90;;;;;;5132784;27;20122;-70
2022/06/11 07:53:48;;;;;;;10.88;2.83;;;22.20;99.90;;;;;;5135242;27;20045;-70
2022/06/11 07:56:15;;;;;;;10.82;2.70;;;22.40;99.90;;;;;;5126677;27;20035;-70
2022/06/11 07:58:41;;;;;;;12.82;3.20;;;22.60;99.90;;;;;;5124610;27;20039;-70
2022/06/11 08:01:07;;;;;;;10.00;2.45;;;22.80;99.90;;;;;;5136467;27;20039;-70
2022/06/11 08:03:37;;;;;;;14.82;3.03;;;23.20;99.70;;;;;;5144344;27;20382;-70
2022/06/11 08:06:04;;;;;;;11.32;3.15;;;23.30;99.40;;;;;;5126138;27;20050;-70
2022/06/11 08:08:31;;;;;;;10.07;3.05;;;23.40;97.90;;;;;;5122417;27;20457;-70
2022/06/11 08:10:58;;;;;;;9.77;2.60;;;23.50;99.00;;;;;;5139463;27;20122;-73
2022/06/11 08:13:25;;;;;;;9.70;2.90;;;23.60;98.60;;;;;;5150149;27;20038;-71
2022/06/11 08:15:52;;;;;;;11.80;2.83;;;23.90;98.20;;;;;;5153257;27;20053;-71
2022/06/11 08:18:19;;;;;;;8.57;2.78;;;23.80;98.20;;;;;;5125678;27;20089;-72
2022/06/11 08:20:46;;;;;;;14.52;3.22;;;23.90;97.60;;;;;;5146728;27;20391;-72
2022/06/11 08:23:12;;;;;;;11.85;3.15;;;23.70;97.00;;;;;;5128075;27;20074;-72
2022/06/11 08:25:39;;;;;;;13.65;3.22;;;23.70;97.30;;;;;;5126788;27;20043;-71
2022/06/11 08:28:05;;;;;;;15.32;3.20;;;23.70;98.10;;;;;;5129022;27;20363;-72
2022/06/11 08:30:33;;;;;;;11.60;2.65;;;23.90;97.70;;;;;;5127549;27;20039;-71
2022/06/11 08:32:59;;;;;;;11.48;3.20;;;24.10;97.40;;;;;;5146481;27;20074;-75
2022/06/11 08:35:28;;;;;;;10.73;3.08;;;23.70;98.00;;;;;;5130644;27;20055;-70
2022/06/11 08:37:54;;;;;;;10.75;2.75;;;24.20;98.10;;;;;;5132582;27;20054;-69
2022/06/11 08:40:38;;;;;;;7.90;2.40;;;24.20;98.10;;;;;;5125996;27;20043;-71
2022/06/11 08:43:19;;;;;;;10.40;3.08;;;24.20;96.80;;;;;;5147509;27;20549;-71
2022/06/11 08:46:01;;;;;;;7.82;2.47;;;24.40;97.60;;;;;;5131672;27;20031;-70
2022/06/11 08:49:01;;;;;;;12.00;3.10;;;24.70;96.80;;;;;;5148015;27;20046;-71
2022/06/11 08:51:58;;;;;;;8.07;2.28;;;24.80;95.90;;;;;;5137956;27;20501;-70
2022/06/11 08:54:29;;;;;;;7.85;2.42;;;25.00;95.60;;;;;;5127464;27;20592;-71
2022/06/11 08:57:17;;;;;;;10.20;3.00;;;24.90;95.30;;;;;;5148022;27;20167;-71
2022/06/11 09:00:04;;;;;;;9.60;2.40;;;24.80;95.60;;;;;;5132916;27;20058;-74
2022/06/11 09:02:32;;;;;;;7.53;2.53;;;25.00;95.30;;;;;;5144613;27;20079;-74
2022/06/11 09:05:13;;;;;;;13.30;2.80;;;24.90;95.10;;;;;;5129535;27;20134;-71
2022/06/11 09:07:46;;;;;;;9.15;2.67;;;24.90;94.50;;;;;;5127954;27;20070;-72
2022/06/11 09:10:20;;;;;;;10.73;2.45;;;25.10;95.50;;;;;;5146529;27;20156;-71
2022/06/11 09:13:00;;;;;;;9.48;2.65;;;25.00;95.10;;;;;;5129201;27;20046;-71
2022/06/11 09:15:49;;;;;;;9.32;2.60;;;24.90;95.40;;;;;;5133214;27;20167;-68
2022/06/11 09:18:49;;;;;;;10.88;2.67;;;24.70;95.10;;;;;;5124517;27;20039;-73
2022/06/11 09:21:31;;;;;;;9.02;2.63;;;24.90;94.70;;;;;;5126532;27;20039;-71
2022/06/11 09:24:29;;;;;;;9.02;2.58;;;24.80;95.30;;;;;;5129997;27;20046;-75
2022/06/11 09:27:19;;;;;;;8.57;2.50;;;25.00;93.90;;;;;;5111863;27;20115;-74
2022/06/11 09:30:04;;;;;;;7.70;2.30;;;25.20;94.50;;;;;;5143278;27;20047;-70
2022/06/11 09:32:36;;;;;;;8.52;2.35;;;25.40;93.80;;;;;;5142459;27;20162;-70
2022/06/11 09:35:35;;;;;;;9.52;2.47;;;25.30;94.20;;;;;;5145847;27;20046;-72
2022/06/11 09:38:39;;;;;;;7.70;2.38;;;25.50;93.30;;;;;;5124908;27;20043;-73
2022/06/11 09:41:11;;;;;;;9.30;2.60;;;25.80;93.10;;;;;;5127205;27;20394;-70
2022/06/11 09:43:54;;;;;;;8.75;2.60;;;25.80;93.30;;;;;;5123408;27;20078;-69
2022/06/11 09:46:20;;;;;;;6.00;2.22;;;25.90;92.60;;;;;;5136495;27;20059;-71
2022/06/11 09:49:11;;;;;;;7.05;2.58;;;26.10;92.70;;;;;;5122828;27;20043;-73
2022/06/11 09:51:51;;;;;;;8.75;2.33;;;26.00;91.60;;;;;;5120071;27;20129;-70
2022/06/11 09:54:39;;;;;;;7.82;2.40;;;26.10;92.50;;;;;;5135877;27;20131;-73
2022/06/11 09:57:26;;;;;;;7.22;2.30;;;26.10;91.20;;;;;;5145796;27;20042;-71
2022/06/11 10:00:10;;;;;;;5.72;2.10;;;25.70;91.30;;;;;;5142336;27;20057;-70
2022/06/11 10:02:53;;;;;;;8.27;2.13;;;25.60;91.40;;;;;;5119033;27;20053;-71
2022/06/11 10:05:25;;;;;;;9.65;2.35;;;25.90;91.90;;;;;;5124526;27;20042;-71
2022/06/11 10:07:58;;;;;;;9.30;2.42;;;25.70;91.90;;;;;;5121590;27;20054;-70
2022/06/11 10:10:28;;;;;;;6.70;2.25;;;26.00;91.10;;;;;;5124530;27;20165;-70
2022/06/11 10:13:00;;;;;;;8.10;2.60;;;25.90;92.00;;;;;;5119538;27;20111;-72
2022/06/11 10:15:38;;;;;;;9.50;2.50;;;25.90;91.90;;;;;;5120388;27;20103;-73
2022/06/11 10:18:20;;;;;;;9.88;2.47;;;26.20;92.30;;;;;;5144168;27;20462;-72
2022/06/11 10:20:52;;;;;;;10.30;2.47;;;26.10;91.80;;;;;;5142367;27;20054;-74
2022/06/11 10:23:20;;;;;;;6.38;2.03;;;25.90;91.20;;;;;;5118448;27;20071;-70
2022/06/11 10:26:07;;;;;;;7.40;2.38;;;25.90;91.80;;;;;;5140101;27;20140;-70
2022/06/11 10:28:50;;;;;;;6.45;2.05;;;25.90;92.00;;;;;;5126961;27;20084;-70
2022/06/11 10:31:39;;;;;;;10.05;2.28;;;26.00;91.70;;;;;;5143165;27;20126;-70
2022/06/11 10:34:27;;;;;;;7.88;2.58;;;25.80;91.20;;;;;;5137812;27;20043;-70
2022/06/11 10:37:20;;;;;;;8.30;2.22;;;25.60;92.60;;;;;;5140416;27;20050;-70
2022/06/11 10:40:06;;;;;;;7.18;2.40;;;25.60;91.50;;;;;;5120196;27;20043;-70
2022/06/11 10:42:43;;;;;;;7.95;2.13;;;25.70;92.70;;;;;;5122702;27;20091;-70
2022/06/11 10:45:14;;;;;;;6.90;2.15;;;25.60;90.90;;;;;;5137262;27;20489;-70
2022/06/11 10:47:46;;;;;;;6.78;2.05;;;25.60;90.50;;;;;;5118527;27;20050;-70
2022/06/11 10:50:12;;;;;;;7.82;2.30;;;25.70;90.10;;;;;;5140019;27;20050;-70
2022/06/11 10:53:03;;;;;;;6.78;2.13;;;25.50;90.20;;;;;;5141379;27;20054;-70
2022/06/11 10:55:34;;;;;;;7.22;2.03;;;25.50;91.10;;;;;;5145283;27;20039;-71
2022/06/11 10:58:36;;;;;;;8.20;2.25;;;25.70;91.20;;;;;;5127934;27;20494;-70
2022/06/11 11:01:07;;;;;;;6.93;2.13;;;25.80;90.90;;;;;;5111295;27;20051;-70
2022/06/11 11:04:06;;;;;;;5.72;1.73;;;25.30;91.10;;;;;;5141689;27;20473;-70
2022/06/11 11:06:36;;;;;;;6.82;1.95;;;25.50;91.40;;;;;;5125183;27;20538;-70
2022/06/11 11:09:11;;;;;;;8.55;2.45;;;25.70;91.60;;;;;;5129153;27;20066;-72
2022/06/11 11:11:52;;;;;;;8.98;2.75;;;25.30;90.70;;;;;;5124408;27;20042;-72
2022/06/11 11:14:38;;;;;;;8.57;2.88;;;25.40;90.30;;;;;;5127093;27;20039;-71
2022/06/11 11:17:22;;;;;;;9.73;2.40;;;25.10;91.50;;;;;;5126105;27;20367;-69
2022/06/11 11:22:51;;;;;;;7.28;2.65;;;25.10;91.90;;;;;;5139521;27;20092;-73
2022/06/11 11:25:24;;;;;;;11.60;2.67;;;25.20;91.90;;;;;;5114100;27;20486;-70
2022/06/11 11:27:50;;;;;;;9.15;2.50;;;24.90;92.40;;;;;;5123081;27;20085;-72
2022/06/11 11:30:15;;;;;;;9.60;2.80;;;24.90;92.60;;;;;;5137520;27;20035;-70
2022/06/11 11:32:43;;;;;;;9.30;2.88;;;24.90;92.30;;;;;;5140526;27;20043;-71
2022/06/11 11:35:28;;;;;;;8.82;2.83;;;25.00;92.70;;;;;;5121116;27;20078;-72
2022/06/11 11:38:04;;;;;;;9.70;2.33;;;24.70;93.30;;;;;;5125622;27;20479;-72
2022/06/11 11:40:46;;;;;;;9.40;2.50;;;24.70;92.30;;;;;;5109756;27;20034;-71
2022/06/11 11:43:12;;;;;;;9.00;2.72;;;24.60;92.60;;;;;;5122583;27;20036;-70
2022/06/11 11:45:56;;;;;;;7.93;3.00;;;24.70;93.00;;;;;;5123313;27;20117;-69
2022/06/11 11:48:52;;;;;;;10.02;2.70;;;24.60;93.00;;;;;;5115765;27;20051;-69
2022/06/11 11:51:33;;;;;;;11.57;3.25;;;24.40;92.70;;;;;;5120404;27;20043;-70
2022/06/11 11:54:05;;;;;;;7.88;2.83;;;24.30;93.50;;;;;;5123639;27;20038;-70
2022/06/11 11:56:43;;;;;;;6.68;2.75;;;24.30;93.50;;;;;;5140213;27;20043;-70
2022/06/11 11:59:18;;;;;;;8.23;2.70;;;24.40;92.20;;;;;;5125438;27;20465;-70
2022/06/11 12:01:45;;;;;;;7.10;2.60;;;24.30;93.30;;;;;;5122010;28;20134;-70
2022/06/11 12:04:26;;;;;;;6.10;2.60;;;24.30;92.00;;;;;;5139307;27;20045;-70
2022/06/11 12:06:53;;;;;;;7.35;2.50;;;24.20;91.90;;;;;;5143219;27;20120;-70
2022/06/11 12:09:32;;;;;;;6.88;2.42;;;24.00;92.60;;;;;;5142421;27;20039;-70
2022/06/11 12:12:12;;;;;;;7.45;2.05;;;24.10;92.20;;;;;;5123287;27;20043;-69
2022/06/11 12:15:00;;;;;;;8.85;2.60;;;24.20;92.40;;;;;;5142795;27;20379;-70
2022/06/11 12:17:52;;;;;;;6.32;2.17;;;24.20;93.00;;;;;;5125440;27;20081;-70
2022/06/11 12:20:26;;;;;;;7.65;2.65;;;24.20;92.70;;;;;;5137853;27;20035;-70
2022/06/11 12:23:04;;;;;;;6.72;2.00;;;24.10;92.40;;;;;;5139753;27;20447;-69
2022/06/11 12:25:59;;;;;;;7.22;2.47;;;24.10;92.80;;;;;;5126405;27;20035;-70
2022/06/11 12:28:32;;;;;;;9.32;2.33;;;24.70;92.30;;;;;;5121678;27;20055;-69
2022/06/11 12:31:01;;;;;;;10.73;2.90;;;23.70;92.50;;;;;;5120445;27;20071;-70
2022/06/11 12:33:30;;;;;;;9.13;3.30;;;23.60;92.50;;;;;;5124237;28;20043;-69
2022/06/11 12:36:14;;;;;;;11.95;2.30;;;23.80;92.50;;;;;;5134710;27;20035;-70
2022/06/11 12:38:51;;;;;;;9.48;2.42;;;23.70;92.80;;;;;;5140565;27;20053;-69
2022/06/11 12:41:56;;;;;;;6.88;2.28;;;23.70;93.30;;;;;;5123673;27;20039;-69
2022/06/11 12:44:57;;;;;;;8.90;2.50;;;23.30;92.60;;;;;;5122142;27;20558;-69
2022/06/11 12:47:47;;;;;;;11.02;2.42;;;23.20;93.10;;;;;;5085827;27;20096;-69
2022/06/11 12:50:26;;;;;;;11.45;3.17;;;23.10;93.40;;;;;;5139980;27;20051;-70
2022/06/11 12:53:14;;;;;;;8.10;2.22;;;23.10;94.00;;;;;;5119472;27;20367;-70
2022/06/11 12:55:57;;;;;;;8.27;2.17;;;23.40;94.20;;;;;;5116317;27;20046;-70
2022/06/11 12:58:28;;;;;;;9.55;2.30;;;23.60;92.90;;;;;;5140563;27;20038;-71
2022/06/11 13:01:03;;;;;;;8.93;2.58;;;23.50;92.70;;;;;;5117521;27;20137;-69
2022/06/11 13:04:11;;;;;;;8.38;1.88;;;23.60;92.90;;;;;;5123220;27;20058;-70
2022/06/11 13:07:20;;;;;;;12.82;2.35;;;23.50;92.70;;;;;;5128728;27;20038;-69
2022/06/11 13:10:27;;;;;;;9.50;1.93;;;23.30;92.00;;;;;;5060921;27;20100;-69
2022/06/11 13:13:25;;;;;;;6.88;2.10;;;23.20;92.30;;;;;;5128818;27;20273;-69
2022/06/11 13:16:35;;;;;;;7.57;1.83;;;23.20;92.20;;;;;;5126796;27;20046;-70